sensor_id;sensor_type;location;lat;lon;timestamp;P1;durP1;ratioP1;P2;durP2;ratioP2
12222;SDS011;6174;49.058;8.524;2024-02-21T06:15:42;4.40;;;3.40;;
12222;SDS011;6174;49.058;8.524;2024-02-21T06:18:09;6.77;;;3.77;;
12222;SDS011;6174;49.058;8.524;2024-02-21T06:20:36;7.20;;;3.40;;
12222;SDS011;6174;49.058;8.524;2024-02-21T06:23:05;5.77;;;3.57;;
12222;SDS011;6174;49.058;8.524;2024-02-21T06:25:32;5.27;;;3.30;;
12222;SDS011;6174;49.058;8.524;2024-02-21T06:27:58;8.53;;;3.87;;
12222;SDS011;6174;49.058;8.524;2024-02-21T06:30:25;6.47;;;3.70;;
12222;SDS011;6174;49.058;8.524;2024-02-21T06:32:54;6.73;;;3.83;;
12222;SDS011;6174;49.058;8.524;2024-02-21T06:35:21;6.17;;;3.63;;
12222;SDS011;6174;49.058;8.524;2024-02-21T06:37:49;5.13;;;3.67;;
12222;SDS011;6174;49.058;8.524;2024-02-21T06:40:16;8.53;;;4.60;;
12222;SDS011;6174;49.058;8.524;2024-02-21T06:42:43;8.93;;;6.23;;
12222;SDS011;6174;49.058;8.524;2024-02-21T06:45:10;10.17;;;6.93;;
12222;SDS011;6174;49.058;8.524;2024-02-21T06:47:37;6.73;;;4.00;;
12222;SDS011;6174;49.058;8.524;2024-02-21T06:50:06;8.37;;;4.30;;
12222;SDS011;6174;49.058;8.524;2024-02-21T06:52:34;5.27;;;3.30;;
12222;SDS011;6174;49.058;8.524;2024-02-21T06:55:03;5.30;;;3.30;;
12222;SDS011;6174;49.058;8.524;2024-02-21T06:57:30;10.10;;;4.13;;
12222;SDS011;6174;49.058;8.524;2024-02-21T06:59:57;7.27;;;4.87;;
12222;SDS011;6174;49.058;8.524;2024-02-21T07:02:24;7.70;;;4.77;;
12222;SDS011;6174;49.058;8.524;2024-02-21T07:04:51;6.80;;;3.70;;
12222;SDS011;6174;49.058;8.524;2024-02-21T07:07:19;26.83;;;15.77;;
12222;SDS011;6174;49.058;8.524;2024-02-21T07:09:46;12.37;;;6.80;;
12222;SDS011;6174;49.058;8.524;2024-02-21T07:12:13;5.83;;;4.63;;
12222;SDS011;6174;49.058;8.524;2024-02-21T07:14:40;5.37;;;3.63;;
12222;SDS011;6174;49.058;8.524;2024-02-21T07:17:07;6.33;;;3.40;;
12222;SDS011;6174;49.058;8.524;2024-02-21T07:19:34;4.50;;;4.10;;
12222;SDS011;6174;49.058;8.524;2024-02-21T07:22:01;5.57;;;3.97;;
12222;SDS011;6174;49.058;8.524;2024-02-21T07:24:30;8.30;;;5.50;;
12222;SDS011;6174;49.058;8.524;2024-02-21T07:26:57;6.33;;;3.87;;
12222;SDS011;6174;49.058;8.524;2024-02-21T07:29:29;6.53;;;3.70;;
12222;SDS011;6174;49.058;8.524;2024-02-21T07:31:56;10.67;;;6.90;;
12222;SDS011;6174;49.058;8.524;2024-02-21T07:34:22;6.67;;;4.30;;
12222;SDS011;6174;49.058;8.524;2024-02-21T07:36:49;6.47;;;3.70;;
12222;SDS011;6174;49.058;8.524;2024-02-21T07:39:16;4.80;;;3.30;;
12222;SDS011;6174;49.058;8.524;2024-02-21T07:41:44;6.77;;;3.73;;
12222;SDS011;6174;49.058;8.524;2024-02-21T07:44:13;6.03;;;2.83;;
12222;SDS011;6174;49.058;8.524;2024-02-21T07:46:39;4.27;;;3.53;;
12222;SDS011;6174;49.058;8.524;2024-02-21T07:49:06;6.00;;;3.43;;
12222;SDS011;6174;49.058;8.524;2024-02-21T07:51:33;6.73;;;3.27;;
12222;SDS011;6174;49.058;8.524;2024-02-21T07:54:01;6.93;;;3.20;;
12222;SDS011;6174;49.058;8.524;2024-02-21T07:56:29;6.77;;;3.03;;
12222;SDS011;6174;49.058;8.524;2024-02-21T07:58:57;5.23;;;3.53;;
12222;SDS011;6174;49.058;8.524;2024-02-21T08:01:24;4.83;;;3.27;;
12222;SDS011;6174;49.058;8.524;2024-02-21T08:03:51;4.37;;;2.83;;
12222;SDS011;6174;49.058;8.524;2024-02-21T08:06:18;3.43;;;2.77;;
12222;SDS011;6174;49.058;8.524;2024-02-21T08:08:44;5.63;;;3.20;;
12222;SDS011;6174;49.058;8.524;2024-02-21T08:11:11;4.40;;;3.17;;
12222;SDS011;6174;49.058;8.524;2024-02-21T08:13:38;6.03;;;3.30;;
12222;SDS011;6174;49.058;8.524;2024-02-21T08:16:08;4.50;;;3.27;;
12222;SDS011;6174;49.058;8.524;2024-02-21T08:18:35;6.03;;;3.23;;
12222;SDS011;6174;49.058;8.524;2024-02-21T08:21:03;4.70;;;3.30;;
12222;SDS011;6174;49.058;8.524;2024-02-21T08:23:31;4.73;;;3.17;;
12222;SDS011;6174;49.058;8.524;2024-02-21T08:25:58;7.43;;;3.27;;
12222;SDS011;6174;49.058;8.524;2024-02-21T08:28:25;5.50;;;3.17;;
12222;SDS011;6174;49.058;8.524;2024-02-21T08:30:52;6.67;;;3.30;;
12222;SDS011;6174;49.058;8.524;2024-02-21T08:33:20;4.67;;;2.70;;
12222;SDS011;6174;49.058;8.524;2024-02-21T08:35:50;5.73;;;3.17;;
12222;SDS011;6174;49.058;8.524;2024-02-21T08:38:17;5.60;;;2.97;;
12222;SDS011;6174;49.058;8.524;2024-02-21T08:40:43;4.67;;;3.47;;
12222;SDS011;6174;49.058;8.524;2024-02-21T08:43:10;4.33;;;3.00;;
12222;SDS011;6174;49.058;8.524;2024-02-21T08:45:37;5.73;;;3.10;;
12222;SDS011;6174;49.058;8.524;2024-02-21T08:48:04;5.07;;;2.90;;
12222;SDS011;6174;49.058;8.524;2024-02-21T08:50:33;6.13;;;3.03;;
12222;SDS011;6174;49.058;8.524;2024-02-21T08:53:01;4.93;;;2.90;;
12222;SDS011;6174;49.058;8.524;2024-02-21T08:55:28;8.60;;;3.63;;
12222;SDS011;6174;49.058;8.524;2024-02-21T08:57:55;7.07;;;2.80;;
12222;SDS011;6174;49.058;8.524;2024-02-21T09:00:21;5.80;;;3.17;;
12222;SDS011;6174;49.058;8.524;2024-02-21T09:02:52;8.53;;;3.47;;
12222;SDS011;6174;49.058;8.524;2024-02-21T09:05:20;5.33;;;3.13;;
12222;SDS011;6174;49.058;8.524;2024-02-21T09:07:49;4.37;;;2.80;;
12222;SDS011;6174;49.058;8.524;2024-02-21T09:10:16;4.50;;;2.80;;
12222;SDS011;6174;49.058;8.524;2024-02-21T09:12:43;5.53;;;3.23;;
12222;SDS011;6174;49.058;8.524;2024-02-21T09:15:10;6.20;;;2.90;;
12222;SDS011;6174;49.058;8.524;2024-02-21T09:17:36;3.87;;;2.60;;
12222;SDS011;6174;49.058;8.524;2024-02-21T09:20:07;4.40;;;2.50;;
12222;SDS011;6174;49.058;8.524;2024-02-21T09:22:37;5.17;;;2.50;;
12222;SDS011;6174;49.058;8.524;2024-02-21T09:25:08;6.97;;;3.00;;
12222;SDS011;6174;49.058;8.524;2024-02-21T09:27:37;5.40;;;2.43;;
12222;SDS011;6174;49.058;8.524;2024-02-21T09:30:04;5.40;;;3.00;;
12222;SDS011;6174;49.058;8.524;2024-02-21T09:32:32;5.13;;;2.90;;
12222;SDS011;6174;49.058;8.524;2024-02-21T09:34:59;5.63;;;2.60;;
12222;SDS011;6174;49.058;8.524;2024-02-21T09:37:25;7.10;;;2.70;;
12222;SDS011;6174;49.058;8.524;2024-02-21T09:39:52;4.00;;;2.90;;
12222;SDS011;6174;49.058;8.524;2024-02-21T09:42:24;6.97;;;2.67;;
12222;SDS011;6174;49.058;8.524;2024-02-21T09:45:01;5.90;;;2.67;;
12222;SDS011;6174;49.058;8.524;2024-02-21T09:47:33;3.50;;;2.60;;
12222;SDS011;6174;49.058;8.524;2024-02-21T09:50:08;8.20;;;2.90;;
12222;SDS011;6174;49.058;8.524;2024-02-21T09:52:36;6.37;;;3.03;;
12222;SDS011;6174;49.058;8.524;2024-02-21T09:55:04;7.13;;;3.30;;
12222;SDS011;6174;49.058;8.524;2024-02-21T09:57:34;5.10;;;2.80;;
12222;SDS011;6174;49.058;8.524;2024-02-21T10:00:01;5.10;;;2.80;;
12222;SDS011;6174;49.058;8.524;2024-02-21T10:02:32;3.53;;;2.43;;
12222;SDS011;6174;49.058;8.524;2024-02-21T10:04:59;4.30;;;2.43;;
12222;SDS011;6174;49.058;8.524;2024-02-21T10:07:26;6.37;;;2.70;;
12222;SDS011;6174;49.058;8.524;2024-02-21T10:10:00;5.67;;;2.80;;
12222;SDS011;6174;49.058;8.524;2024-02-21T10:12:27;4.03;;;2.50;;
12222;SDS011;6174;49.058;8.524;2024-02-21T10:15:01;4.23;;;2.60;;
12222;SDS011;6174;49.058;8.524;2024-02-21T10:17:28;3.60;;;2.63;;
12222;SDS011;6174;49.058;8.524;2024-02-21T10:19:55;5.97;;;2.60;;
12222;SDS011;6174;49.058;8.524;2024-02-21T10:22:21;6.70;;;2.73;;
12222;SDS011;6174;49.058;8.524;2024-02-21T10:24:50;6.80;;;3.20;;
12222;SDS011;6174;49.058;8.524;2024-02-21T10:27:19;5.00;;;2.83;;
12222;SDS011;6174;49.058;8.524;2024-02-21T10:29:49;6.67;;;2.53;;
12222;SDS011;6174;49.058;8.524;2024-02-21T10:32:18;5.57;;;2.87;;
12222;SDS011;6174;49.058;8.524;2024-02-21T10:34:45;5.47;;;3.00;;
12222;SDS011;6174;49.058;8.524;2024-02-21T10:37:16;5.60;;;2.70;;
12222;SDS011;6174;49.058;8.524;2024-02-21T10:39:43;7.63;;;3.40;;
12222;SDS011;6174;49.058;8.524;2024-02-21T10:42:10;5.00;;;2.60;;
12222;SDS011;6174;49.058;8.524;2024-02-21T10:44:38;5.77;;;2.43;;
12222;SDS011;6174;49.058;8.524;2024-02-21T10:47:07;3.87;;;2.40;;
12222;SDS011;6174;49.058;8.524;2024-02-21T10:49:37;5.07;;;2.47;;
12222;SDS011;6174;49.058;8.524;2024-02-21T10:52:06;4.53;;;2.47;;
12222;SDS011;6174;49.058;8.524;2024-02-21T10:54:40;4.67;;;2.33;;
12222;SDS011;6174;49.058;8.524;2024-02-21T10:57:11;5.63;;;2.83;;
12222;SDS011;6174;49.058;8.524;2024-02-21T10:59:40;6.07;;;2.60;;
12222;SDS011;6174;49.058;8.524;2024-02-21T11:02:07;2.93;;;2.10;;
12222;SDS011;6174;49.058;8.524;2024-02-21T11:04:33;5.77;;;2.90;;
12222;SDS011;6174;49.058;8.524;2024-02-21T11:07:03;4.13;;;2.40;;
12222;SDS011;6174;49.058;8.524;2024-02-21T11:09:31;5.80;;;2.67;;
12222;SDS011;6174;49.058;8.524;2024-02-21T11:12:03;3.00;;;2.10;;
12222;SDS011;6174;49.058;8.524;2024-02-21T11:14:31;4.37;;;2.57;;
12222;SDS011;6174;49.058;8.524;2024-02-21T11:17:01;5.67;;;2.77;;
12222;SDS011;6174;49.058;8.524;2024-02-21T11:19:29;4.50;;;2.40;;
12222;SDS011;6174;49.058;8.524;2024-02-21T11:21:56;5.50;;;2.50;;
12222;SDS011;6174;49.058;8.524;2024-02-21T11:24:27;6.53;;;2.70;;
12222;SDS011;6174;49.058;8.524;2024-02-21T11:26:55;4.10;;;2.20;;
12222;SDS011;6174;49.058;8.524;2024-02-21T11:29:25;3.30;;;2.13;;
12222;SDS011;6174;49.058;8.524;2024-02-21T11:31:53;4.03;;;2.17;;
12222;SDS011;6174;49.058;8.524;2024-02-21T11:34:20;5.50;;;2.50;;
12222;SDS011;6174;49.058;8.524;2024-02-21T11:36:52;3.50;;;2.10;;
12222;SDS011;6174;49.058;8.524;2024-02-21T11:39:22;5.77;;;2.23;;
12222;SDS011;6174;49.058;8.524;2024-02-21T11:42:04;5.73;;;2.47;;
12222;SDS011;6174;49.058;8.524;2024-02-21T11:44:33;4.10;;;2.30;;
12222;SDS011;6174;49.058;8.524;2024-02-21T11:47:03;4.00;;;2.13;;
12222;SDS011;6174;49.058;8.524;2024-02-21T11:49:30;4.77;;;2.37;;
12222;SDS011;6174;49.058;8.524;2024-02-21T11:51:57;4.77;;;2.43;;
12222;SDS011;6174;49.058;8.524;2024-02-21T11:54:25;4.47;;;2.23;;
12222;SDS011;6174;49.058;8.524;2024-02-21T11:56:52;3.50;;;2.47;;
12222;SDS011;6174;49.058;8.524;2024-02-21T11:59:20;4.67;;;2.13;;
12222;SDS011;6174;49.058;8.524;2024-02-21T12:01:48;2.93;;;1.93;;
12222;SDS011;6174;49.058;8.524;2024-02-21T12:04:17;3.97;;;2.07;;
12222;SDS011;6174;49.058;8.524;2024-02-21T12:06:44;4.90;;;2.40;;
12222;SDS011;6174;49.058;8.524;2024-02-21T12:09:13;4.53;;;2.43;;
12222;SDS011;6174;49.058;8.524;2024-02-21T12:11:40;3.30;;;2.23;;
12222;SDS011;6174;49.058;8.524;2024-02-21T12:14:07;2.70;;;2.43;;
12222;SDS011;6174;49.058;8.524;2024-02-21T12:16:35;3.00;;;2.17;;
12222;SDS011;6174;49.058;8.524;2024-02-21T12:19:03;4.03;;;2.87;;
12222;SDS011;6174;49.058;8.524;2024-02-21T12:21:30;5.27;;;2.20;;
12222;SDS011;6174;49.058;8.524;2024-02-21T12:23:59;4.57;;;2.20;;
12222;SDS011;6174;49.058;8.524;2024-02-21T12:26:29;4.00;;;1.70;;
12222;SDS011;6174;49.058;8.524;2024-02-21T12:28:56;3.47;;;1.80;;
12222;SDS011;6174;49.058;8.524;2024-02-21T12:31:23;4.20;;;1.87;;
12222;SDS011;6174;49.058;8.524;2024-02-21T12:33:51;3.33;;;1.90;;
12222;SDS011;6174;49.058;8.524;2024-02-21T12:36:18;3.27;;;1.90;;
12222;SDS011;6174;49.058;8.524;2024-02-21T12:38:45;2.97;;;1.70;;
12222;SDS011;6174;49.058;8.524;2024-02-21T12:41:13;3.70;;;1.83;;
12222;SDS011;6174;49.058;8.524;2024-02-21T12:43:40;3.57;;;1.83;;
12222;SDS011;6174;49.058;8.524;2024-02-21T12:46:07;3.77;;;2.00;;
12222;SDS011;6174;49.058;8.524;2024-02-21T12:48:34;3.13;;;1.90;;
12222;SDS011;6174;49.058;8.524;2024-02-21T12:51:02;2.77;;;1.67;;
12222;SDS011;6174;49.058;8.524;2024-02-21T12:53:30;5.10;;;2.03;;
12222;SDS011;6174;49.058;8.524;2024-02-21T12:55:57;4.13;;;2.17;;
12222;SDS011;6174;49.058;8.524;2024-02-21T12:58:24;3.67;;;1.87;;
12222;SDS011;6174;49.058;8.524;2024-02-21T13:00:50;4.30;;;1.93;;
12222;SDS011;6174;49.058;8.524;2024-02-21T13:03:18;3.57;;;1.90;;
12222;SDS011;6174;49.058;8.524;2024-02-21T13:05:46;2.97;;;1.70;;
12222;SDS011;6174;49.058;8.524;2024-02-21T13:08:14;3.73;;;2.13;;
12222;SDS011;6174;49.058;8.524;2024-02-21T13:10:41;3.37;;;1.93;;
12222;SDS011;6174;49.058;8.524;2024-02-21T13:13:08;3.67;;;1.90;;
12222;SDS011;6174;49.058;8.524;2024-02-21T13:15:34;3.03;;;1.60;;
12222;SDS011;6174;49.058;8.524;2024-02-21T13:18:04;4.33;;;1.90;;
12222;SDS011;6174;49.058;8.524;2024-02-21T13:20:31;4.57;;;2.10;;
12222;SDS011;6174;49.058;8.524;2024-02-21T13:22:57;3.57;;;1.93;;
12222;SDS011;6174;49.058;8.524;2024-02-21T13:25:25;4.67;;;2.20;;
12222;SDS011;6174;49.058;8.524;2024-02-21T13:27:52;3.63;;;2.17;;
12222;SDS011;6174;49.058;8.524;2024-02-21T13:30:19;3.37;;;1.90;;
12222;SDS011;6174;49.058;8.524;2024-02-21T13:32:46;3.33;;;1.97;;
12222;SDS011;6174;49.058;8.524;2024-02-21T13:35:12;3.37;;;1.80;;
12222;SDS011;6174;49.058;8.524;2024-02-21T13:37:40;4.10;;;2.57;;
12222;SDS011;6174;49.058;8.524;2024-02-21T13:40:07;5.10;;;2.50;;
12222;SDS011;6174;49.058;8.524;2024-02-21T13:42:36;4.13;;;2.03;;
12222;SDS011;6174;49.058;8.524;2024-02-21T13:45:03;3.80;;;2.30;;
12222;SDS011;6174;49.058;8.524;2024-02-21T13:47:30;4.40;;;2.17;;
12222;SDS011;6174;49.058;8.524;2024-02-21T13:49:57;3.73;;;2.10;;
12222;SDS011;6174;49.058;8.524;2024-02-21T13:52:24;3.70;;;2.07;;
12222;SDS011;6174;49.058;8.524;2024-02-21T13:54:52;5.67;;;1.90;;
12222;SDS011;6174;49.058;8.524;2024-02-21T13:57:18;4.27;;;2.10;;
12222;SDS011;6174;49.058;8.524;2024-02-21T13:59:47;6.63;;;2.07;;
12222;SDS011;6174;49.058;8.524;2024-02-21T14:02:13;3.37;;;2.17;;
12222;SDS011;6174;49.058;8.524;2024-02-21T14:04:40;2.60;;;2.00;;
12222;SDS011;6174;49.058;8.524;2024-02-21T14:07:07;4.80;;;2.40;;
12222;SDS011;6174;49.058;8.524;2024-02-21T14:09:34;3.50;;;1.80;;
12222;SDS011;6174;49.058;8.524;2024-02-21T14:12:01;3.30;;;2.20;;
12222;SDS011;6174;49.058;8.524;2024-02-21T14:14:28;2.93;;;2.10;;
12222;SDS011;6174;49.058;8.524;2024-02-21T14:16:56;4.43;;;1.90;;
12222;SDS011;6174;49.058;8.524;2024-02-21T14:19:23;3.20;;;2.03;;
12222;SDS011;6174;49.058;8.524;2024-02-21T14:21:50;2.93;;;1.83;;
12222;SDS011;6174;49.058;8.524;2024-02-21T14:24:16;4.63;;;1.97;;
12222;SDS011;6174;49.058;8.524;2024-02-21T14:26:43;3.93;;;2.23;;
12222;SDS011;6174;49.058;8.524;2024-02-21T14:29:10;3.47;;;1.87;;
12222;SDS011;6174;49.058;8.524;2024-02-21T14:31:37;4.73;;;2.43;;
12222;SDS011;6174;49.058;8.524;2024-02-21T14:34:05;3.50;;;2.27;;
12222;SDS011;6174;49.058;8.524;2024-02-21T14:36:32;4.17;;;3.27;;
12222;SDS011;6174;49.058;8.524;2024-02-21T14:38:59;6.00;;;4.13;;
12222;SDS011;6174;49.058;8.524;2024-02-21T14:41:26;5.50;;;2.90;;
12222;SDS011;6174;49.058;8.524;2024-02-21T14:43:53;6.43;;;4.80;;
12222;SDS011;6174;49.058;8.524;2024-02-21T14:46:25;3.83;;;2.50;;
12222;SDS011;6174;49.058;8.524;2024-02-21T14:48:53;4.47;;;2.40;;
12222;SDS011;6174;49.058;8.524;2024-02-21T14:51:21;4.77;;;2.90;;
12222;SDS011;6174;49.058;8.524;2024-02-21T14:53:48;4.00;;;2.50;;
12222;SDS011;6174;49.058;8.524;2024-02-21T14:56:15;6.73;;;2.83;;
12222;SDS011;6174;49.058;8.524;2024-02-21T14:58:43;3.23;;;2.10;;
12222;SDS011;6174;49.058;8.524;2024-02-21T15:01:10;4.40;;;2.60;;
12222;SDS011;6174;49.058;8.524;2024-02-21T15:03:38;5.33;;;2.43;;
12222;SDS011;6174;49.058;8.524;2024-02-21T15:06:05;4.40;;;2.83;;
12222;SDS011;6174;49.058;8.524;2024-02-21T15:08:33;3.90;;;2.30;;
12222;SDS011;6174;49.058;8.524;2024-02-21T15:11:01;5.23;;;3.27;;
12222;SDS011;6174;49.058;8.524;2024-02-21T15:13:28;3.80;;;3.40;;
12222;SDS011;6174;49.058;8.524;2024-02-21T15:15:55;4.00;;;2.43;;
12222;SDS011;6174;49.058;8.524;2024-02-21T15:18:22;2.43;;;2.23;;
12222;SDS011;6174;49.058;8.524;2024-02-21T15:20:49;4.63;;;2.20;;
12222;SDS011;6174;49.058;8.524;2024-02-21T15:23:15;3.13;;;2.13;;
12222;SDS011;6174;49.058;8.524;2024-02-21T15:25:44;3.40;;;2.00;;
12222;SDS011;6174;49.058;8.524;2024-02-21T15:28:11;5.93;;;2.00;;
12222;SDS011;6174;49.058;8.524;2024-02-21T15:30:38;5.13;;;2.20;;
12222;SDS011;6174;49.058;8.524;2024-02-21T15:33:04;4.03;;;2.20;;
12222;SDS011;6174;49.058;8.524;2024-02-21T15:35:31;4.53;;;2.07;;
12222;SDS011;6174;49.058;8.524;2024-02-21T15:37:58;4.23;;;2.27;;
12222;SDS011;6174;49.058;8.524;2024-02-21T15:40:25;3.67;;;2.07;;
12222;SDS011;6174;49.058;8.524;2024-02-21T15:42:53;3.93;;;2.30;;
12222;SDS011;6174;49.058;8.524;2024-02-21T15:45:20;6.17;;;2.73;;
12222;SDS011;6174;49.058;8.524;2024-02-21T15:47:47;5.70;;;3.90;;
12222;SDS011;6174;49.058;8.524;2024-02-21T15:50:14;7.60;;;4.53;;
12222;SDS011;6174;49.058;8.524;2024-02-21T15:52:41;6.93;;;4.70;;
12222;SDS011;6174;49.058;8.524;2024-02-21T15:55:08;6.33;;;5.03;;
12222;SDS011;6174;49.058;8.524;2024-02-21T15:57:37;13.07;;;8.30;;
12222;SDS011;6174;49.058;8.524;2024-02-21T16:00:05;6.67;;;4.87;;
12222;SDS011;6174;49.058;8.524;2024-02-21T16:02:37;6.50;;;3.10;;
12222;SDS011;6174;49.058;8.524;2024-02-21T16:05:05;4.90;;;3.27;;
12222;SDS011;6174;49.058;8.524;2024-02-21T16:07:34;5.67;;;2.67;;
12222;SDS011;6174;49.058;8.524;2024-02-21T16:10:02;3.57;;;2.70;;
12222;SDS011;6174;49.058;8.524;2024-02-21T16:12:30;4.30;;;2.53;;
12222;SDS011;6174;49.058;8.524;2024-02-21T16:14:57;2.97;;;2.60;;
12222;SDS011;6174;49.058;8.524;2024-02-21T16:17:25;4.23;;;2.77;;
12222;SDS011;6174;49.058;8.524;2024-02-21T16:19:52;4.00;;;2.20;;
12222;SDS011;6174;49.058;8.524;2024-02-21T16:22:19;3.50;;;2.27;;
12222;SDS011;6174;49.058;8.524;2024-02-21T16:24:46;4.73;;;2.20;;
12222;SDS011;6174;49.058;8.524;2024-02-21T16:27:14;4.27;;;2.50;;
12222;SDS011;6174;49.058;8.524;2024-02-21T16:29:41;4.50;;;2.60;;
12222;SDS011;6174;49.058;8.524;2024-02-21T16:32:07;5.30;;;2.60;;
12222;SDS011;6174;49.058;8.524;2024-02-21T16:34:36;3.97;;;3.03;;
12222;SDS011;6174;49.058;8.524;2024-02-21T16:37:03;5.17;;;3.00;;
12222;SDS011;6174;49.058;8.524;2024-02-21T16:39:32;4.30;;;2.60;;
12222;SDS011;6174;49.058;8.524;2024-02-21T16:41:59;4.40;;;2.73;;
12222;SDS011;6174;49.058;8.524;2024-02-21T16:44:28;4.13;;;2.10;;
12222;SDS011;6174;49.058;8.524;2024-02-21T16:46:56;4.70;;;2.60;;
12222;SDS011;6174;49.058;8.524;2024-02-21T16:49:22;6.10;;;2.23;;
12222;SDS011;6174;49.058;8.524;2024-02-21T16:51:52;4.77;;;3.50;;
12222;SDS011;6174;49.058;8.524;2024-02-21T16:54:22;5.37;;;3.10;;
12222;SDS011;6174;49.058;8.524;2024-02-21T16:56:50;6.47;;;4.10;;
12222;SDS011;6174;49.058;8.524;2024-02-21T16:59:17;5.27;;;3.33;;
12222;SDS011;6174;49.058;8.524;2024-02-21T17:01:44;5.67;;;4.87;;
12222;SDS011;6174;49.058;8.524;2024-02-21T17:04:11;7.27;;;6.20;;
12222;SDS011;6174;49.058;8.524;2024-02-21T17:06:40;9.73;;;7.30;;
12222;SDS011;6174;49.058;8.524;2024-02-21T17:09:08;8.93;;;6.10;;
12222;SDS011;6174;49.058;8.524;2024-02-21T17:11:38;7.50;;;5.57;;
12222;SDS011;6174;49.058;8.524;2024-02-21T17:14:05;7.97;;;5.07;;
12222;SDS011;6174;49.058;8.524;2024-02-21T17:16:32;7.00;;;5.50;;
12222;SDS011;6174;49.058;8.524;2024-02-21T17:18:59;7.10;;;4.77;;
12222;SDS011;6174;49.058;8.524;2024-02-21T17:21:25;6.33;;;4.50;;
12222;SDS011;6174;49.058;8.524;2024-02-21T17:33:41;9.00;;;5.30;;
12222;SDS011;6174;49.058;8.524;2024-02-21T17:36:12;9.13;;;6.67;;
12222;SDS011;6174;49.058;8.524;2024-02-21T17:38:41;8.73;;;6.60;;
12222;SDS011;6174;49.058;8.524;2024-02-21T17:41:10;9.73;;;8.60;;
12222;SDS011;6174;49.058;8.524;2024-02-21T17:43:38;7.03;;;6.27;;
12222;SDS011;6174;49.058;8.524;2024-02-21T17:46:07;6.67;;;5.97;;
12222;SDS011;6174;49.058;8.524;2024-02-21T17:48:34;6.87;;;5.27;;
12222;SDS011;6174;49.058;8.524;2024-02-21T17:51:06;9.13;;;5.67;;
12222;SDS011;6174;49.058;8.524;2024-02-21T17:53:34;7.37;;;5.27;;
12222;SDS011;6174;49.058;8.524;2024-02-21T17:56:04;5.83;;;4.77;;
12222;SDS011;6174;49.058;8.524;2024-02-21T17:58:32;4.30;;;3.63;;
12222;SDS011;6174;49.058;8.524;2024-02-21T18:01:01;6.07;;;4.40;;
12222;SDS011;6174;49.058;8.524;2024-02-21T18:03:30;7.50;;;4.53;;
12222;SDS011;6174;49.058;8.524;2024-02-21T18:05:58;4.93;;;4.30;;
12222;SDS011;6174;49.058;8.524;2024-02-21T18:08:26;6.43;;;3.77;;
12222;SDS011;6174;49.058;8.524;2024-02-21T18:10:54;6.17;;;4.67;;
12222;SDS011;6174;49.058;8.524;2024-02-21T18:13:25;7.93;;;5.60;;
12222;SDS011;6174;49.058;8.524;2024-02-21T18:15:55;7.73;;;5.17;;
12222;SDS011;6174;49.058;8.524;2024-02-21T18:18:24;6.87;;;4.67;;
12222;SDS011;6174;49.058;8.524;2024-02-21T18:20:53;6.23;;;4.73;;
12222;SDS011;6174;49.058;8.524;2024-02-21T18:23:21;6.10;;;4.70;;
12222;SDS011;6174;49.058;8.524;2024-02-21T18:25:53;6.40;;;4.57;;
12222;SDS011;6174;49.058;8.524;2024-02-21T18:28:24;8.47;;;5.27;;
12222;SDS011;6174;49.058;8.524;2024-02-21T18:30:53;9.47;;;6.13;;
12222;SDS011;6174;49.058;8.524;2024-02-21T18:33:20;9.37;;;6.20;;
12222;SDS011;6174;49.058;8.524;2024-02-21T18:35:48;8.50;;;5.97;;
12222;SDS011;6174;49.058;8.524;2024-02-21T18:38:20;7.27;;;6.20;;
12222;SDS011;6174;49.058;8.524;2024-02-21T18:40:47;8.17;;;6.53;;
12222;SDS011;6174;49.058;8.524;2024-02-21T18:43:14;8.27;;;5.83;;
12222;SDS011;6174;49.058;8.524;2024-02-21T18:45:43;9.13;;;5.57;;
12222;SDS011;6174;49.058;8.524;2024-02-21T18:48:13;6.80;;;5.23;;
12222;SDS011;6174;49.058;8.524;2024-02-21T18:50:41;9.50;;;5.93;;
12222;SDS011;6174;49.058;8.524;2024-02-21T18:53:09;9.43;;;5.53;;
12222;SDS011;6174;49.058;8.524;2024-02-21T18:55:38;7.00;;;5.93;;
12222;SDS011;6174;49.058;8.524;2024-02-21T18:58:09;8.67;;;6.13;;
12222;SDS011;6174;49.058;8.524;2024-02-21T19:00:37;9.50;;;6.27;;
12222;SDS011;6174;49.058;8.524;2024-02-21T19:03:05;7.23;;;6.10;;
12222;SDS011;6174;49.058;8.524;2024-02-21T19:05:35;7.67;;;5.27;;
12222;SDS011;6174;49.058;8.524;2024-02-21T19:08:38;7.93;;;5.70;;
12222;SDS011;6174;49.058;8.524;2024-02-21T19:14:23;7.90;;;5.70;;
12222;SDS011;6174;49.058;8.524;2024-02-21T19:23:34;7.27;;;5.50;;
12222;SDS011;6174;49.058;8.524;2024-02-21T19:26:29;8.33;;;6.23;;
12222;SDS011;6174;49.058;8.524;2024-02-21T19:29:05;6.67;;;5.40;;
12222;SDS011;6174;49.058;8.524;2024-02-21T19:31:40;6.47;;;4.63;;
12222;SDS011;6174;49.058;8.524;2024-02-21T19:34:38;5.70;;;5.20;;
12222;SDS011;6174;49.058;8.524;2024-02-21T19:38:14;7.33;;;5.60;;
12222;SDS011;6174;49.058;8.524;2024-02-21T19:41:33;7.97;;;5.77;;
12222;SDS011;6174;49.058;8.524;2024-02-21T19:51:17;6.73;;;5.30;;
12222;SDS011;6174;49.058;8.524;2024-02-21T19:56:48;7.43;;;6.00;;
12222;SDS011;6174;49.058;8.524;2024-02-21T19:59:22;10.07;;;5.60;;
12222;SDS011;6174;49.058;8.524;2024-02-21T20:02:10;8.50;;;4.93;;
12222;SDS011;6174;49.058;8.524;2024-02-21T20:05:30;6.67;;;5.70;;
12222;SDS011;6174;49.058;8.524;2024-02-21T20:08:36;8.10;;;5.63;;
12222;SDS011;6174;49.058;8.524;2024-02-21T20:11:17;9.37;;;5.67;;
12222;SDS011;6174;49.058;8.524;2024-02-21T20:21:09;5.87;;;4.80;;
12222;SDS011;6174;49.058;8.524;2024-02-21T20:28:03;6.87;;;4.60;;
12222;SDS011;6174;49.058;8.524;2024-02-21T20:31:05;6.90;;;2.80;;
12222;SDS011;6174;49.058;8.524;2024-02-21T20:33:40;2.73;;;1.83;;
12222;SDS011;6174;49.058;8.524;2024-02-21T20:38:51;1.93;;;1.80;;
12222;SDS011;6174;49.058;8.524;2024-02-21T20:41:54;2.93;;;1.80;;
12222;SDS011;6174;49.058;8.524;2024-02-21T20:45:03;2.33;;;1.87;;
12222;SDS011;6174;49.058;8.524;2024-02-21T20:47:34;2.20;;;2.00;;
12222;SDS011;6174;49.058;8.524;2024-02-21T20:50:56;1.57;;;1.47;;
12222;SDS011;6174;49.058;8.524;2024-02-21T20:54:00;1.73;;;1.53;;
12222;SDS011;6174;49.058;8.524;2024-02-21T20:56:46;1.67;;;1.43;;
12222;SDS011;6174;49.058;8.524;2024-02-21T20:59:23;1.63;;;1.47;;
12222;SDS011;6174;49.058;8.524;2024-02-21T21:05:13;2.63;;;2.10;;
12222;SDS011;6174;49.058;8.524;2024-02-21T21:11:49;2.90;;;2.53;;
12222;SDS011;6174;49.058;8.524;2024-02-21T21:15:08;2.70;;;2.30;;
12222;SDS011;6174;49.058;8.524;2024-02-21T21:27:53;3.00;;;2.70;;
12222;SDS011;6174;49.058;8.524;2024-02-21T21:30:38;3.17;;;2.53;;
12222;SDS011;6174;49.058;8.524;2024-02-21T21:33:28;3.67;;;2.77;;
12222;SDS011;6174;49.058;8.524;2024-02-21T21:36:23;3.40;;;2.60;;
12222;SDS011;6174;49.058;8.524;2024-02-21T21:38:51;4.17;;;2.50;;
12222;SDS011;6174;49.058;8.524;2024-02-21T21:41:42;3.43;;;2.57;;
12222;SDS011;6174;49.058;8.524;2024-02-21T21:47:27;3.43;;;2.50;;
12222;SDS011;6174;49.058;8.524;2024-02-21T21:50:01;4.80;;;3.00;;
12222;SDS011;6174;49.058;8.524;2024-02-21T21:52:30;2.73;;;2.30;;
12222;SDS011;6174;49.058;8.524;2024-02-21T21:54:59;4.20;;;2.33;;
12222;SDS011;6174;49.058;8.524;2024-02-21T21:57:26;10.10;;;8.03;;
12222;SDS011;6174;49.058;8.524;2024-02-21T22:02:44;2.83;;;2.40;;
12222;SDS011;6174;49.058;8.524;2024-02-21T22:05:15;2.93;;;2.53;;
12222;SDS011;6174;49.058;8.524;2024-02-21T22:07:43;3.17;;;2.87;;
12222;SDS011;6174;49.058;8.524;2024-02-21T22:10:26;3.53;;;2.80;;
12222;SDS011;6174;49.058;8.524;2024-02-21T22:12:58;2.67;;;2.33;;
12222;SDS011;6174;49.058;8.524;2024-02-21T22:21:30;3.10;;;2.30;;
12222;SDS011;6174;49.058;8.524;2024-02-21T22:23:58;2.60;;;2.40;;
12222;SDS011;6174;49.058;8.524;2024-02-21T22:26:25;3.50;;;2.70;;
12222;SDS011;6174;49.058;8.524;2024-02-21T22:28:54;2.63;;;2.43;;
12222;SDS011;6174;49.058;8.524;2024-02-21T22:31:30;3.70;;;2.40;;
12222;SDS011;6174;49.058;8.524;2024-02-21T22:33:58;3.53;;;2.57;;
12222;SDS011;6174;49.058;8.524;2024-02-21T22:36:26;4.27;;;2.30;;
12222;SDS011;6174;49.058;8.524;2024-02-21T22:39:09;2.93;;;2.40;;
12222;SDS011;6174;49.058;8.524;2024-02-21T22:41:50;2.30;;;2.10;;
12222;SDS011;6174;49.058;8.524;2024-02-21T22:44:22;2.87;;;2.30;;
12222;SDS011;6174;49.058;8.524;2024-02-21T22:46:51;3.20;;;2.20;;